Impacts METAR Board INFO
IDs:

KEWR - Newark Intl, NJ, US

Updated at: 0410 UTC 21 Jan 2018
Potential Impact None Slight Moderate High
Time20/16Z 20/17Z 20/18Z 20/19Z 20/20Z 20/21Z 20/22Z 20/23Z 21/00Z 21/01Z 21/02Z 21/03Z 21/04Z
VIS10 10 10 10 10 10 10 10 10 10 10 10 10
CIG250 250 250 250 250 250 250 230 250 250 -- -- --
CoverBKNBKNBKNBKNBKNBKNBKNBKNBKNBKNSCTSCTFEW
FltCatVFRVFRVFRVFRVFRVFRVFRVFRVFRVFRVFRVFRVFR
WX--------------------------
WDir240270260250280260260250250260220200210
WSpd15 18 20 21 19 17 13 9 9 6 6 5 6
WGst20 25 29 26 25 25 21 -- -- -- -- -- --
Raw hourly METARs
KEWR 201551Z 24015G20KT 10SM FEW160 BKN250 10/M04 A2990 RMK AO2 SLP123 T01001044
KEWR 201651Z 27018G25KT 10SM FEW160 BKN250 12/M04 A2987 RMK AO2 PK WND 27027/1625 SLP115 T01171044
KEWR 201751Z 26020G29KT 10SM FEW160 BKN250 12/M04 A2985 RMK AO2 PK WND 26029/1747 SLP108 T01221044 10122 20006 58020
KEWR 201851Z 25021G26KT 10SM FEW160 BKN250 12/M04 A2986 RMK AO2 PK WND 26030/1803 SLP109 T01221039
KEWR 201951Z 28019G25KT 10SM FEW180 BKN250 12/M04 A2988 RMK AO2 PK WND 26029/1933 SLP117 T01171039 $
KEWR 202051Z 26017G25KT 10SM FEW190 BKN250 10/M04 A2990 RMK AO2 PK WND 28030/1954 SLP126 T01001039 53018 $
KEWR 202151Z 26013G21KT 10SM FEW190 BKN250 09/M03 A2993 RMK AO2 SLP136 T00941033 $
KEWR 202251Z 25009KT 10SM FEW170 BKN230 08/M03 A2996 RMK AO2 SLP144 T00831028 $
KEWR 202351Z 25009KT 10SM FEW190 BKN250 08/M02 A2999 RMK AO2 SLP153 T00781022 10128 20078 51027 $
KEWR 210051Z 26006KT 10SM BKN250 07/M02 A3001 RMK AO2 SLP163 T00721022 $
KEWR 210151Z 22006KT 10SM SCT250 04/M03 A3002 RMK AO2 SLP164 T00441028 $
KEWR 210251Z 20005KT 10SM SCT250 04/M03 A3002 RMK AO2 SLP166 T00441028 51013 $
KEWR 210351Z 21006KT 10SM FEW250 03/M03 A3004 RMK AO2 SLP170 T00331028 $